Terminal Aerodrome Forecast
Issued by NWS

Home | Current Version | Previous Version | Text Only | Print | Product List | Glossary On
Versions: 1 2 3 4 5 6 7 8 9 10 11 12 13 14 15 16 17 18 19 20 21 22 23 24 25 26 27 28 29 30 31
457
FTUS42 KCAE 222116 AAA
TAFOGB
TAF AMD
KOGB 222116Z 2221/2318 VRB04KT P6SM VCSH SCT025 BKN045
      TEMPO 2221/2223 3SM SHRA BKN025 OVC150
     FM230000 VRB03KT P6SM SCT025 OVC150
     FM230300 VRB03KT P6SM SCT008 OVC150
     FM230700 VRB03KT 5SM BR SCT008 OVC012
      TEMPO 2309/2313 2SM BR SCT003 OVC008
     FM231500 23007KT P6SM OVC012=

USA.gov is the U.S. government's official web portal to all federal, state and local government web resources and services.